Terminal Aerodrome Forecast
Issued by NWS Blacksburg, VA

Home | Current Version | Previous Version | Text Only | Print | Product List | Glossary On
Versions: 1 2 3 4 5 6 7 8 9 10 11 12 13 14 15 16 17 18 19 20 21 22 23 24 25 26 27 28 29 30 31
000
FTUS41 KRNK 010419 AAB
TAFLYH
TAF AMD
KLYH 010419Z 0104/0124 00000KT P6SM -RA SCT090 BKN250
      TEMPO 0105/0106 5SM SHRA BR BKN050
     FM010600 00000KT P6SM BKN090
      TEMPO 0109/0112 4SM BR
     FM011500 25006KT P6SM BKN080
     FM011800 27007KT P6SM VCTS BKN050CB=

USA.gov is the U.S. government's official web portal to all federal, state and local government web resources and services.